createdAt,value
2017-10-29T00:00:41.114Z,0
2017-10-29T00:01:41.100Z,0
2017-10-29T00:02:41.091Z,0
2017-10-29T00:03:41.077Z,0
2017-10-29T00:04:41.078Z,0
2017-10-29T00:05:41.073Z,0
2017-10-29T00:06:40.732Z,0
2017-10-29T00:07:40.727Z,0
2017-10-29T00:08:41.035Z,0
2017-10-29T00:09:41.029Z,0
2017-10-29T00:10:40.697Z,0
2017-10-29T00:11:41.015Z,0
2017-10-29T00:12:41.001Z,0
2017-10-29T00:13:40.993Z,0
2017-10-29T00:14:40.669Z,0
2017-10-29T00:15:40.983Z,0
2017-10-29T00:16:40.982Z,0
2017-10-29T00:17:41.216Z,0
2017-10-29T00:18:40.956Z,0
2017-10-29T00:19:40.621Z,0
2017-10-29T00:20:40.937Z,0
2017-10-29T00:21:40.929Z,0
2017-10-29T00:22:40.919Z,0
2017-10-29T00:23:40.913Z,0
2017-10-29T00:24:40.917Z,0
2017-10-29T00:25:40.571Z,0
2017-10-29T00:26:40.886Z,0
2017-10-29T00:27:40.563Z,0
2017-10-29T00:28:40.542Z,0
2017-10-29T00:29:40.858Z,0
2017-10-29T00:30:40.531Z,0
2017-10-29T00:31:40.871Z,0
2017-10-29T00:32:40.831Z,0
2017-10-29T00:33:40.829Z,0
2017-10-29T00:34:40.817Z,0
2017-10-29T00:35:40.801Z,0
2017-10-29T00:36:40.803Z,0
2017-10-29T00:37:40.792Z,0
2017-10-29T00:38:40.138Z,0
2017-10-29T00:39:40.774Z,0
2017-10-29T00:40:40.444Z,0
2017-10-29T00:41:40.445Z,0
2017-10-29T00:42:40.428Z,0
2017-10-29T00:43:40.426Z,0
2017-10-29T00:44:40.730Z,0
2017-10-29T00:45:40.723Z,0
2017-10-29T00:46:40.393Z,0
2017-10-29T00:47:40.387Z,0
2017-10-29T00:48:40.951Z,0
2017-10-29T00:49:40.380Z,0
2017-10-29T00:50:40.044Z,0
2017-10-29T00:51:40.673Z,0
2017-10-29T00:52:40.668Z,0
2017-10-29T00:53:40.653Z,0
2017-10-29T00:54:40.653Z,0
2017-10-29T00:55:40.644Z,0
2017-10-29T00:56:40.639Z,0
2017-10-29T00:57:40.628Z,0
2017-10-29T00:58:40.295Z,0
2017-10-29T00:59:40.610Z,0
2017-10-29T01:00:40.625Z,0
2017-10-29T01:01:40.277Z,0
2017-10-29T01:02:40.257Z,0
2017-10-29T01:03:40.576Z,0
2017-10-29T01:04:40.243Z,0
2017-10-29T01:05:40.559Z,0
2017-10-29T01:06:39.911Z,0
2017-10-29T01:07:40.225Z,0
2017-10-29T01:08:40.535Z,0
2017-10-29T01:09:40.201Z,0
2017-10-29T01:10:40.517Z,0
2017-10-29T01:11:40.509Z,0
2017-10-29T01:12:39.857Z,0
2017-10-29T01:13:40.168Z,0
2017-10-29T01:14:40.487Z,0
2017-10-29T01:15:40.473Z,0
2017-10-29T01:16:40.468Z,0
2017-10-29T01:17:40.461Z,0
2017-10-29T01:18:39.805Z,0
2017-10-29T01:19:40.696Z,0
2017-10-29T01:20:40.437Z,0
2017-10-29T01:21:40.422Z,0
2017-10-29T01:22:40.418Z,0
2017-10-29T01:23:40.090Z,0
2017-10-29T01:24:40.406Z,0
2017-10-29T01:25:40.396Z,0
2017-10-29T01:26:40.395Z,0
2017-10-29T01:27:40.089Z,0
2017-10-29T01:28:40.371Z,0
2017-10-29T01:29:40.368Z,0
2017-10-29T01:30:40.031Z,0
2017-10-29T01:31:40.354Z,0
2017-10-29T01:32:40.341Z,0
2017-10-29T01:33:40.327Z,0
2017-10-29T01:34:40.321Z,0
2017-10-29T01:35:39.990Z,0
2017-10-29T01:36:40.011Z,0
2017-10-29T01:37:40.305Z,0
2017-10-29T01:38:39.320Z,0
2017-10-29T01:39:39.958Z,0
2017-10-29T01:40:39.951Z,0
2017-10-29T01:41:40.267Z,0
2017-10-29T01:42:40.272Z,0
2017-10-29T01:43:39.925Z,0
2017-10-29T01:44:40.244Z,0
2017-10-29T01:45:39.912Z,0
2017-10-29T01:46:40.225Z,0
2017-10-29T01:47:40.219Z,0
2017-10-29T01:48:40.244Z,0
2017-10-29T01:49:40.205Z,0
2017-10-29T01:50:40.446Z,0
2017-10-29T01:51:40.191Z,0
2017-10-29T01:52:40.177Z,0
2017-10-29T01:53:39.858Z,0
2017-10-29T01:54:39.836Z,0
2017-10-29T01:55:40.151Z,0
2017-10-29T01:56:40.150Z,0
2017-10-29T01:57:40.147Z,0
2017-10-29T01:58:40.123Z,0
2017-10-29T01:59:40.116Z,0
2017-10-29T02:00:40.113Z,0
2017-10-29T02:01:40.123Z,0
2017-10-29T02:02:40.103Z,0
2017-10-29T02:03:39.773Z,0
2017-10-29T02:04:40.086Z,0
2017-10-29T02:05:39.751Z,0
2017-10-29T02:06:40.079Z,0
2017-10-29T02:07:40.058Z,0
2017-10-29T02:08:40.044Z,0
2017-10-29T02:09:40.036Z,0
2017-10-29T02:10:40.043Z,0
2017-10-29T02:11:40.023Z,0
2017-10-29T02:12:40.010Z,0
2017-10-29T02:13:40.021Z,0
2017-10-29T02:14:39.994Z,0
2017-10-29T02:15:39.020Z,0
2017-10-29T02:16:39.986Z,0
2017-10-29T02:17:39.969Z,0
2017-10-29T02:18:39.983Z,0
2017-10-29T02:19:39.959Z,0
2017-10-29T02:20:39.956Z,0
2017-10-29T02:21:39.938Z,0
2017-10-29T02:22:39.939Z,0
2017-10-29T02:23:39.922Z,0
2017-10-29T02:24:39.914Z,0
2017-10-29T02:25:39.905Z,0
2017-10-29T02:26:39.903Z,0
2017-10-29T02:27:39.893Z,0
2017-10-29T02:28:39.884Z,0
2017-10-29T02:29:39.871Z,0
2017-10-29T02:30:39.878Z,0
2017-10-29T02:31:39.855Z,0
2017-10-29T02:32:39.878Z,0
2017-10-29T02:33:39.842Z,0
2017-10-29T02:34:39.832Z,0
2017-10-29T02:35:39.828Z,0
2017-10-29T02:36:39.834Z,0
2017-10-29T02:37:39.167Z,0
2017-10-29T02:38:39.805Z,0
2017-10-29T02:39:39.476Z,0
2017-10-29T02:40:39.784Z,0
2017-10-29T02:41:39.777Z,0
2017-10-29T02:42:39.764Z,0
2017-10-29T02:43:39.436Z,0
2017-10-29T02:44:39.436Z,0
2017-10-29T02:45:39.741Z,0
2017-10-29T02:46:39.413Z,0
2017-10-29T02:47:39.727Z,0
2017-10-29T02:48:39.721Z,0
2017-10-29T02:49:39.388Z,0
2017-10-29T02:50:39.727Z,0
2017-10-29T02:51:39.703Z,0
2017-10-29T02:52:39.684Z,0
2017-10-29T02:53:39.353Z,0
2017-10-29T02:54:39.665Z,0
2017-10-29T02:55:39.341Z,0
2017-10-29T02:56:39.664Z,0
2017-10-29T02:57:39.647Z,0
2017-10-29T02:58:39.634Z,0
2017-10-29T02:59:39.637Z,0
2017-10-29T03:00:39.614Z,0
2017-10-29T03:01:39.623Z,0
2017-10-29T03:02:39.599Z,0
2017-10-29T03:03:39.649Z,0
2017-10-29T03:04:39.583Z,0
2017-10-29T03:05:39.573Z,0
2017-10-29T03:06:39.612Z,0
2017-10-29T03:07:38.908Z,0
2017-10-29T03:08:39.225Z,0
2017-10-29T03:09:39.552Z,0
2017-10-29T03:10:39.537Z,0
2017-10-29T03:11:39.204Z,0
2017-10-29T03:12:39.517Z,0
2017-10-29T03:13:39.507Z,0
2017-10-29T03:14:38.529Z,0
2017-10-29T03:15:39.489Z,0
2017-10-29T03:16:39.481Z,0
2017-10-29T03:17:39.475Z,0
2017-10-29T03:18:39.172Z,0
2017-10-29T03:19:39.133Z,0
2017-10-29T03:20:38.804Z,0
2017-10-29T03:21:39.440Z,0
2017-10-29T03:22:39.107Z,0
2017-10-29T03:23:38.451Z,0
2017-10-29T03:24:39.667Z,0
2017-10-29T03:25:39.097Z,0
2017-10-29T03:26:39.394Z,0
2017-10-29T03:27:39.386Z,0
2017-10-29T03:28:39.049Z,0
2017-10-29T03:29:39.369Z,0
2017-10-29T03:30:39.388Z,0
2017-10-29T03:31:39.348Z,0
2017-10-29T03:32:39.370Z,0
2017-10-29T03:33:39.329Z,0
2017-10-29T03:34:39.321Z,0
2017-10-29T03:35:39.324Z,0
2017-10-29T03:36:39.303Z,0
2017-10-29T03:37:38.969Z,0
2017-10-29T03:38:39.283Z,0
2017-10-29T03:39:39.279Z,0
2017-10-29T03:40:39.272Z,0
2017-10-29T03:41:39.256Z,0
2017-10-29T03:42:38.925Z,0
2017-10-29T03:43:39.237Z,0
2017-10-29T03:44:39.228Z,0
2017-10-29T03:45:38.896Z,0
2017-10-29T03:46:39.212Z,0
2017-10-29T03:47:39.204Z,0
2017-10-29T03:48:38.877Z,0
2017-10-29T03:49:39.185Z,0
2017-10-29T03:50:39.176Z,0
2017-10-29T03:51:39.171Z,0
2017-10-29T03:52:38.832Z,0
2017-10-29T03:53:39.149Z,0
2017-10-29T03:54:38.816Z,0
2017-10-29T03:55:39.067Z,0
2017-10-29T03:56:39.121Z,0
2017-10-29T03:57:39.110Z,0
2017-10-29T03:58:39.115Z,0
2017-10-29T03:59:39.092Z,0
2017-10-29T04:00:39.096Z,0
2017-10-29T04:01:38.751Z,0
2017-10-29T04:02:39.065Z,0
2017-10-29T04:03:39.059Z,0
2017-10-29T04:04:39.057Z,0
2017-10-29T04:05:39.042Z,0
2017-10-29T04:06:39.042Z,0
2017-10-29T04:07:39.027Z,0
2017-10-29T04:08:38.690Z,0
2017-10-29T04:09:38.678Z,0
2017-10-29T04:10:38.671Z,0
2017-10-29T04:11:38.990Z,0
2017-10-29T04:12:38.980Z,0
2017-10-29T04:13:38.980Z,0
2017-10-29T04:14:38.961Z,0
2017-10-29T04:15:38.637Z,0
2017-10-29T04:16:38.932Z,0
2017-10-29T04:17:38.941Z,0
2017-10-29T04:18:38.924Z,0
2017-10-29T04:19:38.907Z,0
2017-10-29T04:20:38.905Z,0
2017-10-29T04:21:38.896Z,0
2017-10-29T04:22:38.882Z,0
2017-10-29T04:23:38.876Z,0
2017-10-29T04:24:38.867Z,0
2017-10-29T04:25:38.526Z,0
2017-10-29T04:26:39.093Z,0
2017-10-29T04:27:38.833Z,0
2017-10-29T04:28:38.497Z,0
2017-10-29T04:29:38.809Z,0
2017-10-29T04:30:38.796Z,0
2017-10-29T04:31:38.467Z,0
2017-10-29T04:32:38.136Z,0
2017-10-29T04:33:38.782Z,0
2017-10-29T04:34:38.766Z,0
2017-10-29T04:35:38.752Z,0
2017-10-29T04:36:38.774Z,0
2017-10-29T04:37:38.728Z,0
2017-10-29T04:38:38.395Z,0
2017-10-29T04:39:38.722Z,0
2017-10-29T04:40:38.707Z,0
2017-10-29T04:41:38.690Z,0
2017-10-29T04:42:38.682Z,0
2017-10-29T04:43:38.351Z,0
2017-10-29T04:44:38.667Z,0
2017-10-29T04:45:38.651Z,0
2017-10-29T04:46:38.636Z,0
2017-10-29T04:47:38.628Z,0
2017-10-29T04:48:38.310Z,0
2017-10-29T04:49:38.612Z,0
2017-10-29T04:50:38.275Z,0
2017-10-29T04:51:38.588Z,0
2017-10-29T04:52:38.579Z,0
2017-10-29T04:53:38.576Z,0
2017-10-29T04:54:38.555Z,0
2017-10-29T04:55:38.227Z,0
2017-10-29T04:56:38.541Z,0
2017-10-29T04:57:38.773Z,0
2017-10-29T04:58:38.513Z,0
2017-10-29T04:59:38.504Z,0
2017-10-29T05:00:38.496Z,0
2017-10-29T05:01:38.165Z,0
2017-10-29T05:02:38.483Z,0
2017-10-29T05:03:38.144Z,0
2017-10-29T05:04:38.475Z,0
2017-10-29T05:05:38.444Z,0
2017-10-29T05:06:38.112Z,0
2017-10-29T05:07:38.426Z,0
2017-10-29T05:08:38.430Z,0
2017-10-29T05:09:38.404Z,0
2017-10-29T05:10:38.398Z,0
2017-10-29T05:11:38.384Z,0
2017-10-29T05:12:38.368Z,0
2017-10-29T05:13:38.367Z,0
2017-10-29T05:14:38.357Z,0
2017-10-29T05:15:38.022Z,0
2017-10-29T05:16:38.012Z,0
2017-10-29T05:17:38.025Z,0
2017-10-29T05:18:37.985Z,0
2017-10-29T05:19:38.294Z,0
2017-10-29T05:20:38.287Z,0
2017-10-29T05:21:38.273Z,4
2017-10-29T05:22:37.942Z,4
2017-10-29T05:23:38.257Z,4
2017-10-29T05:24:37.918Z,0
2017-10-29T05:25:38.241Z,4
2017-10-29T05:26:38.219Z,8
2017-10-29T05:27:37.885Z,4
2017-10-29T05:28:37.874Z,8
2017-10-29T05:29:38.190Z,8
2017-10-29T05:30:38.191Z,8
2017-10-29T05:31:38.175Z,12
2017-10-29T05:32:38.156Z,16
2017-10-29T05:33:38.150Z,20
2017-10-29T05:34:38.135Z,24
2017-10-29T05:35:37.799Z,28
2017-10-29T05:36:38.113Z,32
2017-10-29T05:37:38.106Z,40
2017-10-29T05:38:37.771Z,44
2017-10-29T05:39:38.094Z,44
2017-10-29T05:40:38.068Z,44
2017-10-29T05:41:37.739Z,44
2017-10-29T05:42:38.053Z,44
2017-10-29T05:43:38.038Z,60
2017-10-29T05:44:38.030Z,64
2017-10-29T05:45:37.719Z,76
2017-10-29T05:46:38.008Z,104
2017-10-29T05:47:37.988Z,116
2017-10-29T05:48:37.985Z,136
2017-10-29T05:49:37.649Z,152
2017-10-29T05:50:37.963Z,164
2017-10-29T05:51:37.947Z,200
2017-10-29T05:52:37.937Z,228
2017-10-29T05:53:37.932Z,224
2017-10-29T05:54:37.915Z,232
2017-10-29T05:55:37.912Z,240
2017-10-29T05:56:37.897Z,228
2017-10-29T05:57:37.888Z,244
2017-10-29T05:58:37.876Z,284
2017-10-29T05:59:37.869Z,344
2017-10-29T06:00:38.102Z,396
2017-10-29T06:01:37.846Z,428
2017-10-29T06:02:37.842Z,476
2017-10-29T06:03:37.501Z,464
2017-10-29T06:04:37.815Z,484
2017-10-29T06:05:37.804Z,460
2017-10-29T06:06:37.467Z,576
2017-10-29T06:07:37.782Z,808
2017-10-29T06:08:37.772Z,1056
2017-10-29T06:09:37.433Z,1400
2017-10-29T06:10:37.755Z,1484
2017-10-29T06:11:37.412Z,1572
2017-10-29T06:12:37.738Z,1180
2017-10-29T06:13:37.715Z,964
2017-10-29T06:14:37.389Z,716
2017-10-29T06:15:37.703Z,400
2017-10-29T06:16:37.699Z,280
2017-10-29T06:17:37.675Z,288
2017-10-29T06:18:37.666Z,300
2017-10-29T06:19:37.657Z,284
2017-10-29T06:20:37.647Z,252
2017-10-29T06:21:37.632Z,228
2017-10-29T06:22:37.627Z,204
2017-10-29T06:23:37.616Z,208
2017-10-29T06:24:37.287Z,260
2017-10-29T06:25:37.636Z,372
2017-10-29T06:26:37.589Z,544
2017-10-29T06:27:37.576Z,720
2017-10-29T06:28:37.560Z,1020
2017-10-29T06:29:37.584Z,1168
2017-10-29T06:30:37.544Z,820
2017-10-29T06:31:37.785Z,876
2017-10-29T06:32:37.522Z,712
2017-10-29T06:33:37.513Z,604
2017-10-29T06:34:36.860Z,488
2017-10-29T06:35:37.172Z,556
2017-10-29T06:36:37.158Z,476
2017-10-29T06:37:37.473Z,456
2017-10-29T06:38:37.462Z,400
2017-10-29T06:39:37.453Z,464
2017-10-29T06:40:37.441Z,500
2017-10-29T06:41:37.437Z,540
2017-10-29T06:42:37.432Z,516
2017-10-29T06:43:37.414Z,456
2017-10-29T06:44:37.401Z,464
2017-10-29T06:45:37.066Z,412
2017-10-29T06:46:37.390Z,564
2017-10-29T06:47:37.050Z,732
2017-10-29T06:48:37.356Z,848
2017-10-29T06:49:37.053Z,996
2017-10-29T06:50:37.336Z,1016
2017-10-29T06:51:37.328Z,1120
2017-10-29T06:52:36.993Z,1536
2017-10-29T06:53:37.312Z,1220
2017-10-29T06:54:37.306Z,988
2017-10-29T06:55:37.286Z,1056
2017-10-29T06:56:37.294Z,1116
2017-10-29T06:57:37.268Z,1088
2017-10-29T06:58:37.263Z,1488
2017-10-29T06:59:36.927Z,1200
2017-10-29T07:00:37.245Z,1212
2017-10-29T07:01:36.909Z,1908
2017-10-29T07:02:37.478Z,2652
2017-10-29T07:03:37.204Z,2544
2017-10-29T07:04:37.195Z,2864
2017-10-29T07:05:37.187Z,2756
2017-10-29T07:06:37.182Z,2596
2017-10-29T07:07:36.521Z,3240
2017-10-29T07:08:36.834Z,3936
2017-10-29T07:09:37.148Z,4216
2017-10-29T07:10:36.812Z,3704
2017-10-29T07:11:37.126Z,4564
2017-10-29T07:12:36.798Z,4860
2017-10-29T07:13:37.106Z,4604
2017-10-29T07:14:37.106Z,3780
2017-10-29T07:15:37.098Z,3640
2017-10-29T07:16:36.756Z,4264
2017-10-29T07:17:37.068Z,3864
2017-10-29T07:18:36.732Z,3604
2017-10-29T07:19:37.049Z,3992
2017-10-29T07:20:37.032Z,4836
2017-10-29T07:21:36.708Z,4076
2017-10-29T07:22:36.369Z,3580
2017-10-29T07:23:36.680Z,4532
2017-10-29T07:24:37.028Z,4500
2017-10-29T07:25:36.661Z,3464
2017-10-29T07:26:36.978Z,3000
2017-10-29T07:27:36.966Z,3228
2017-10-29T07:28:36.962Z,3460
2017-10-29T07:29:36.623Z,3316
2017-10-29T07:30:36.615Z,3312
2017-10-29T07:31:36.602Z,3020
2017-10-29T07:32:36.594Z,3688
2017-10-29T07:33:36.833Z,4920
2017-10-29T07:34:36.905Z,5496
2017-10-29T07:35:36.888Z,4288
2017-10-29T07:36:36.554Z,3752
2017-10-29T07:37:36.865Z,2572
2017-10-29T07:38:36.537Z,2896
2017-10-29T07:39:36.198Z,2756
2017-10-29T07:40:36.517Z,2160
2017-10-29T07:41:36.828Z,2884
2017-10-29T07:42:36.826Z,2980
2017-10-29T07:43:36.804Z,4216
2017-10-29T07:44:36.841Z,3624
2017-10-29T07:45:36.143Z,2712
2017-10-29T07:46:36.798Z,2136
2017-10-29T07:47:36.464Z,2180
2017-10-29T07:48:36.771Z,2528
2017-10-29T07:49:36.748Z,3468
2017-10-29T07:50:36.736Z,2988
2017-10-29T07:51:36.408Z,2940
2017-10-29T07:52:36.404Z,3160
2017-10-29T07:53:36.066Z,2232
2017-10-29T07:54:36.707Z,2472
2017-10-29T07:55:36.705Z,3704
2017-10-29T07:56:36.036Z,5156
2017-10-29T07:57:36.679Z,5752
2017-10-29T07:58:36.668Z,4284
2017-10-29T07:59:36.651Z,3580
2017-10-29T08:00:36.327Z,2860
2017-10-29T08:01:36.642Z,3148
2017-10-29T08:02:36.627Z,3148
2017-10-29T08:03:36.614Z,3000
2017-10-29T08:04:36.855Z,4040
2017-10-29T08:05:36.274Z,3872
2017-10-29T08:06:36.590Z,3164
2017-10-29T08:07:36.253Z,3248
2017-10-29T08:08:36.250Z,3820
2017-10-29T08:09:36.241Z,3800
2017-10-29T08:10:36.550Z,4376
2017-10-29T08:11:36.222Z,3644
2017-10-29T08:12:36.531Z,2300
2017-10-29T08:13:35.875Z,2732
2017-10-29T08:14:36.189Z,2396
2017-10-29T08:15:36.180Z,3448
2017-10-29T08:16:36.168Z,3584
2017-10-29T08:17:36.166Z,4296
2017-10-29T08:18:36.155Z,3916
2017-10-29T08:19:35.821Z,3332
2017-10-29T08:20:35.806Z,3140
2017-10-29T08:21:36.445Z,3236
2017-10-29T08:22:36.120Z,3148
2017-10-29T08:23:36.424Z,4420
2017-10-29T08:24:36.422Z,2940
2017-10-29T08:25:36.402Z,3652
2017-10-29T08:26:36.414Z,4340
2017-10-29T08:27:36.387Z,3924
2017-10-29T08:28:36.376Z,3760
2017-10-29T08:29:36.362Z,4068
2017-10-29T08:30:36.359Z,3612
2017-10-29T08:31:36.350Z,2252
2017-10-29T08:32:36.373Z,2764
2017-10-29T08:33:36.328Z,2848
2017-10-29T08:34:36.319Z,4112
2017-10-29T08:35:36.310Z,4984
2017-10-29T08:36:36.296Z,3968
2017-10-29T08:37:36.305Z,4184
2017-10-29T08:38:36.278Z,3620
2017-10-29T08:39:36.271Z,3332
2017-10-29T08:40:35.606Z,4900
2017-10-29T08:41:36.248Z,5632
2017-10-29T08:42:36.235Z,5844
2017-10-29T08:43:35.901Z,5324
2017-10-29T08:44:36.223Z,6748
2017-10-29T08:45:35.882Z,7300
2017-10-29T08:46:35.904Z,10560
2017-10-29T08:47:35.865Z,10384
2017-10-29T08:48:36.175Z,12476
2017-10-29T08:49:36.166Z,11760
2017-10-29T08:50:36.162Z,9112
2017-10-29T08:51:36.148Z,8892
2017-10-29T08:52:36.159Z,8960
2017-10-29T08:53:36.128Z,7968
2017-10-29T08:54:35.795Z,6256
2017-10-29T08:55:35.791Z,5112
2017-10-29T08:56:36.105Z,5408
2017-10-29T08:57:35.788Z,4856
2017-10-29T08:58:35.757Z,4080
2017-10-29T08:59:36.077Z,3804
2017-10-29T09:00:36.083Z,4448
2017-10-29T09:01:35.727Z,4984
2017-10-29T09:02:36.058Z,5320
2017-10-29T09:03:35.707Z,6580
2017-10-29T09:04:36.021Z,5196
2017-10-29T09:05:36.007Z,4736
2017-10-29T09:06:36.006Z,3828
2017-10-29T09:07:35.919Z,3088
2017-10-29T09:08:35.990Z,3220
2017-10-29T09:09:35.978Z,4416
2017-10-29T09:10:35.971Z,3304
2017-10-29T09:11:35.972Z,2508
2017-10-29T09:12:35.630Z,2736
2017-10-29T09:13:35.939Z,3628
2017-10-29T09:14:35.599Z,3132
2017-10-29T09:15:35.926Z,3420
2017-10-29T09:16:35.905Z,2740
2017-10-29T09:17:35.577Z,2724
2017-10-29T09:18:35.890Z,3120
2017-10-29T09:19:35.879Z,2924
2017-10-29T09:20:35.866Z,2608
2017-10-29T09:21:35.545Z,2684
2017-10-29T09:22:36.157Z,3272
2017-10-29T09:23:35.513Z,5528
2017-10-29T09:24:35.513Z,5944
2017-10-29T09:25:35.813Z,5524
2017-10-29T09:26:35.163Z,6412
2017-10-29T09:27:35.807Z,10872
2017-10-29T09:28:35.784Z,12316
2017-10-29T09:29:35.454Z,13064
2017-10-29T09:30:35.778Z,14252
2017-10-29T09:31:35.757Z,11308
2017-10-29T09:32:35.752Z,11468
2017-10-29T09:33:35.738Z,11712
2017-10-29T09:34:35.725Z,12280
2017-10-29T09:35:35.725Z,12352
2017-10-29T09:36:35.713Z,13472
2017-10-29T09:37:35.706Z,11680
2017-10-29T09:38:35.695Z,9304
2017-10-29T09:39:35.680Z,8888
2017-10-29T09:40:35.674Z,8220
2017-10-29T09:41:35.664Z,8000
2017-10-29T09:42:35.330Z,8164
2017-10-29T09:43:35.660Z,7228
2017-10-29T09:44:35.313Z,7324
2017-10-29T09:45:35.630Z,7200
2017-10-29T09:46:35.630Z,6756
2017-10-29T09:47:35.608Z,8288
2017-10-29T09:48:34.635Z,9292
2017-10-29T09:49:35.597Z,10540
2017-10-29T09:50:34.936Z,9248
2017-10-29T09:51:35.610Z,12364
2017-10-29T09:52:35.239Z,9784
2017-10-29T09:53:35.565Z,9680
2017-10-29T09:54:35.227Z,12000
2017-10-29T09:55:35.543Z,14876
2017-10-29T09:56:35.531Z,15256
2017-10-29T09:57:35.520Z,14100
2017-10-29T09:58:35.193Z,13444
2017-10-29T09:59:35.181Z,11692
2017-10-29T10:00:35.494Z,9860
2017-10-29T10:01:35.511Z,9444
2017-10-29T10:02:35.477Z,9192
2017-10-29T10:03:35.165Z,7412
2017-10-29T10:04:35.458Z,6916
2017-10-29T10:05:35.158Z,6844
2017-10-29T10:06:35.442Z,6516
2017-10-29T10:07:35.110Z,5852
2017-10-29T10:08:35.099Z,5332
2017-10-29T10:09:35.440Z,3740
2017-10-29T10:10:35.402Z,3516
2017-10-29T10:11:35.080Z,4556
2017-10-29T10:12:35.067Z,7348
2017-10-29T10:13:35.388Z,8736
2017-10-29T10:14:35.379Z,6156
2017-10-29T10:15:35.363Z,5948
2017-10-29T10:16:35.032Z,4572
2017-10-29T10:17:35.344Z,4784
2017-10-29T10:18:35.015Z,4696
2017-10-29T10:19:35.005Z,7360
2017-10-29T10:20:35.320Z,10336
2017-10-29T10:21:35.320Z,12312
2017-10-29T10:22:35.307Z,11616
2017-10-29T10:23:35.302Z,11288
2017-10-29T10:24:35.289Z,11832
2017-10-29T10:25:35.275Z,10820
2017-10-29T10:26:35.261Z,10676
2017-10-29T10:27:35.251Z,8312
2017-10-29T10:28:35.245Z,7616
2017-10-29T10:29:35.230Z,10440
2017-10-29T10:30:35.228Z,11488
2017-10-29T10:31:35.220Z,11664
2017-10-29T10:32:34.881Z,13104
2017-10-29T10:33:35.209Z,12896
2017-10-29T10:34:35.195Z,12260
2017-10-29T10:35:34.532Z,10384
2017-10-29T10:36:34.845Z,9864
2017-10-29T10:37:34.832Z,9188
2017-10-29T10:38:35.149Z,11076
2017-10-29T10:39:35.140Z,12120
2017-10-29T10:40:35.126Z,12260
2017-10-29T10:41:34.802Z,12120
2017-10-29T10:42:35.107Z,12104
2017-10-29T10:43:35.118Z,12708
2017-10-29T10:44:35.095Z,13288
2017-10-29T10:45:34.761Z,13424
2017-10-29T10:46:35.077Z,13960
2017-10-29T10:47:35.080Z,13856
2017-10-29T10:48:34.730Z,13796
2017-10-29T10:49:35.044Z,14008
2017-10-29T10:50:35.050Z,14592
2017-10-29T10:51:35.029Z,14608
2017-10-29T10:52:34.740Z,14020
2017-10-29T10:53:35.015Z,12800
2017-10-29T10:54:35.007Z,11396
2017-10-29T10:55:35.013Z,10576
2017-10-29T10:56:34.670Z,10096
2017-10-29T10:57:34.994Z,10224
2017-10-29T10:58:34.645Z,10660
2017-10-29T10:59:34.640Z,11204
2017-10-29T11:00:34.628Z,11828
2017-10-29T11:01:34.629Z,12368
2017-10-29T11:02:34.939Z,12812
2017-10-29T11:03:34.949Z,12884
2017-10-29T11:04:34.923Z,11800
2017-10-29T11:05:34.595Z,8864
2017-10-29T11:06:34.581Z,6752
2017-10-29T11:07:34.900Z,7044
2017-10-29T11:08:34.889Z,9884
2017-10-29T11:09:34.560Z,10392
2017-10-29T11:10:34.877Z,9680
2017-10-29T11:11:34.866Z,10564
2017-10-29T11:12:34.867Z,9808
2017-10-29T11:13:34.858Z,8684
2017-10-29T11:14:34.847Z,8156
2017-10-29T11:15:34.838Z,8280
2017-10-29T11:16:34.178Z,8584
2017-10-29T11:17:34.825Z,8080
2017-10-29T11:18:34.808Z,6900
2017-10-29T11:19:34.480Z,5404
2017-10-29T11:20:34.793Z,4780
2017-10-29T11:21:34.784Z,6648
2017-10-29T11:22:34.456Z,5224
2017-10-29T11:23:34.770Z,4252
2017-10-29T11:24:34.439Z,5156
2017-10-29T11:25:34.751Z,5776
2017-10-29T11:26:34.747Z,8012
2017-10-29T11:27:34.742Z,4824
2017-10-29T11:28:34.726Z,3848
2017-10-29T11:29:34.723Z,3300
2017-10-29T11:30:34.390Z,3264
2017-10-29T11:31:34.738Z,2832
2017-10-29T11:32:34.690Z,2828
2017-10-29T11:33:34.685Z,2684
2017-10-29T11:34:34.351Z,2628
2017-10-29T11:35:34.343Z,2560
2017-10-29T11:36:34.332Z,2728
2017-10-29T11:37:34.648Z,4308
2017-10-29T11:38:34.646Z,6680
2017-10-29T11:39:34.626Z,7912
2017-10-29T11:40:34.296Z,8392
2017-10-29T11:41:33.990Z,9044
2017-10-29T11:42:34.606Z,9000
2017-10-29T11:43:34.616Z,8556
2017-10-29T11:44:34.264Z,7732
2017-10-29T11:45:34.257Z,7020
2017-10-29T11:46:34.243Z,6844
2017-10-29T11:47:34.552Z,7176
2017-10-29T11:48:34.548Z,7872
2017-10-29T11:49:34.212Z,8572
2017-10-29T11:50:34.533Z,8444
2017-10-29T11:51:34.525Z,7600
2017-10-29T11:52:34.181Z,6812
2017-10-29T11:53:34.502Z,6484
2017-10-29T11:54:34.486Z,6248
2017-10-29T11:55:34.152Z,5936
2017-10-29T11:56:34.477Z,5504
2017-10-29T11:57:34.466Z,5508
2017-10-29T11:58:34.131Z,6596
2017-10-29T11:59:34.126Z,7512
2017-10-29T12:00:34.433Z,7728
2017-10-29T12:01:34.423Z,8100
2017-10-29T12:02:34.413Z,8604
2017-10-29T12:03:33.760Z,9012
2017-10-29T12:04:34.388Z,9404
2017-10-29T12:05:34.379Z,9260
2017-10-29T12:06:34.368Z,8516
2017-10-29T12:07:34.361Z,7236
2017-10-29T12:08:34.354Z,6500
2017-10-29T12:09:34.361Z,6704
2017-10-29T12:10:34.328Z,6644
2017-10-29T12:11:34.321Z,6668
2017-10-29T12:12:33.998Z,6648
2017-10-29T12:13:34.299Z,6724
2017-10-29T12:14:33.967Z,7016
2017-10-29T12:15:33.955Z,7388
2017-10-29T12:16:34.273Z,8160
2017-10-29T12:17:34.267Z,9808
2017-10-29T12:18:34.253Z,11136
2017-10-29T12:19:34.237Z,11120
2017-10-29T12:20:33.585Z,9992
2017-10-29T12:21:34.223Z,8340
2017-10-29T12:22:33.889Z,7464
2017-10-29T12:23:33.877Z,7096
2017-10-29T12:24:34.192Z,8020
2017-10-29T12:25:33.868Z,9436
2017-10-29T12:26:34.175Z,10036
2017-10-29T12:27:33.839Z,9716
2017-10-29T12:28:34.158Z,9384
2017-10-29T12:29:34.144Z,8808
2017-10-29T12:30:34.132Z,8164
2017-10-29T12:31:34.119Z,7880
2017-10-29T12:32:34.112Z,7472
2017-10-29T12:33:34.100Z,6724
2017-10-29T12:34:34.896Z,5852
2017-10-29T12:35:34.091Z,5344
2017-10-29T12:36:33.750Z,4984
2017-10-29T12:37:33.418Z,4732
2017-10-29T12:38:34.062Z,4740
2017-10-29T12:39:33.723Z,4908
2017-10-29T12:40:34.029Z,4592
2017-10-29T12:41:33.699Z,3500
2017-10-29T12:42:33.689Z,2912
2017-10-29T12:43:34.004Z,2584
2017-10-29T12:44:33.675Z,2376
2017-10-29T12:45:33.993Z,2152
2017-10-29T12:46:33.969Z,2108
2017-10-29T12:47:32.994Z,2064
2017-10-29T12:48:33.962Z,1836
2017-10-29T12:49:33.945Z,1864
2017-10-29T12:50:33.940Z,1744
2017-10-29T12:51:33.924Z,1840
2017-10-29T12:52:33.918Z,1508
2017-10-29T12:53:33.900Z,1592
2017-10-29T12:54:33.899Z,1376
2017-10-29T12:55:33.560Z,1524
2017-10-29T12:56:33.862Z,1580
2017-10-29T12:57:33.858Z,1968
2017-10-29T12:58:33.848Z,1792
2017-10-29T12:59:33.840Z,1748
2017-10-29T13:00:33.496Z,1716
2017-10-29T13:01:33.813Z,1904
2017-10-29T13:02:33.806Z,1892
2017-10-29T13:03:33.796Z,2372
2017-10-29T13:04:33.459Z,3372
2017-10-29T13:05:33.800Z,4472
2017-10-29T13:06:33.436Z,5132
2017-10-29T13:07:33.426Z,5460
2017-10-29T13:08:33.416Z,5860
2017-10-29T13:09:33.731Z,6408
2017-10-29T13:10:33.396Z,7156
2017-10-29T13:11:33.701Z,7788
2017-10-29T13:12:33.689Z,7848
2017-10-29T13:13:33.681Z,7624
2017-10-29T13:14:33.341Z,7348
2017-10-29T13:15:33.018Z,7040
2017-10-29T13:16:33.645Z,6712
2017-10-29T13:17:33.638Z,6464
2017-10-29T13:18:33.635Z,6312
2017-10-29T13:19:33.622Z,6228
2017-10-29T13:20:33.602Z,6120
2017-10-29T13:21:33.592Z,6000
2017-10-29T13:22:33.253Z,5812
2017-10-29T13:23:33.567Z,5548
2017-10-29T13:24:33.559Z,5204
2017-10-29T13:25:33.557Z,4904
2017-10-29T13:26:33.531Z,4680
2017-10-29T13:27:33.194Z,4560
2017-10-29T13:28:33.523Z,4516
2017-10-29T13:29:33.173Z,4256
2017-10-29T13:30:33.488Z,3968
2017-10-29T13:31:33.476Z,3780
2017-10-29T13:32:33.466Z,3692
2017-10-29T13:33:33.459Z,3620
2017-10-29T13:34:33.442Z,3572
2017-10-29T13:35:33.434Z,3820
2017-10-29T13:36:33.096Z,4200
2017-10-29T13:37:33.713Z,5324
2017-10-29T13:38:33.401Z,5348
2017-10-29T13:39:33.393Z,5744
2017-10-29T13:40:33.054Z,6532
2017-10-29T13:41:33.366Z,6756
2017-10-29T13:42:33.044Z,6024
2017-10-29T13:43:33.030Z,7332
2017-10-29T13:44:33.335Z,6400
2017-10-29T13:45:33.323Z,6280
2017-10-29T13:46:33.319Z,5640
2017-10-29T13:47:33.325Z,5072
2017-10-29T13:48:32.972Z,5168
2017-10-29T13:49:32.956Z,5332
2017-10-29T13:50:32.947Z,3936
2017-10-29T13:51:32.937Z,3484
2017-10-29T13:52:33.283Z,3196